sensor_id;sensor_type;location;lat;lon;timestamp;temperature;humidity
5023;DHT22;2530;47.990;7.866;2023-05-19T00:01:57;11.90;99.90
5023;DHT22;2530;47.990;7.866;2023-05-19T00:04:25;11.80;99.90
5023;DHT22;2530;47.990;7.866;2023-05-19T00:06:52;11.90;99.90
5023;DHT22;2530;47.990;7.866;2023-05-19T00:09:18;11.90;99.90
5023;DHT22;2530;47.990;7.866;2023-05-19T00:11:44;11.80;99.90
5023;DHT22;2530;47.990;7.866;2023-05-19T00:14:10;11.80;99.90
5023;DHT22;2530;47.990;7.866;2023-05-19T00:16:36;11.80;99.90
5023;DHT22;2530;47.990;7.866;2023-05-19T00:19:04;11.90;99.90
5023;DHT22;2530;47.990;7.866;2023-05-19T00:21:30;11.80;99.90
5023;DHT22;2530;47.990;7.866;2023-05-19T00:23:56;11.80;99.90
5023;DHT22;2530;47.990;7.866;2023-05-19T00:26:23;11.80;99.90
5023;DHT22;2530;47.990;7.866;2023-05-19T00:28:49;11.70;99.90
5023;DHT22;2530;47.990;7.866;2023-05-19T00:31:14;11.80;99.90
5023;DHT22;2530;47.990;7.866;2023-05-19T00:33:40;11.70;99.90
5023;DHT22;2530;47.990;7.866;2023-05-19T00:36:06;11.80;99.90
5023;DHT22;2530;47.990;7.866;2023-05-19T00:38:33;11.80;99.90
5023;DHT22;2530;47.990;7.866;2023-05-19T00:41:00;11.80;99.90
5023;DHT22;2530;47.990;7.866;2023-05-19T00:43:26;11.80;99.90
5023;DHT22;2530;47.990;7.866;2023-05-19T00:45:52;11.70;99.90
5023;DHT22;2530;47.990;7.866;2023-05-19T00:48:17;11.80;99.90
5023;DHT22;2530;47.990;7.866;2023-05-19T00:50:44;11.70;99.90
5023;DHT22;2530;47.990;7.866;2023-05-19T00:53:10;11.70;99.90
5023;DHT22;2530;47.990;7.866;2023-05-19T00:55:36;11.70;99.90
5023;DHT22;2530;47.990;7.866;2023-05-19T00:58:05;11.60;99.90
5023;DHT22;2530;47.990;7.866;2023-05-19T01:00:31;11.70;99.90
5023;DHT22;2530;47.990;7.866;2023-05-19T01:02:57;11.70;99.90
5023;DHT22;2530;47.990;7.866;2023-05-19T01:05:22;11.70;99.90
5023;DHT22;2530;47.990;7.866;2023-05-19T01:07:48;11.60;99.90
5023;DHT22;2530;47.990;7.866;2023-05-19T01:10:18;11.60;99.90
5023;DHT22;2530;47.990;7.866;2023-05-19T01:12:44;11.60;99.90
5023;DHT22;2530;47.990;7.866;2023-05-19T01:15:10;11.50;99.90
5023;DHT22;2530;47.990;7.866;2023-05-19T01:17:44;11.50;99.90
5023;DHT22;2530;47.990;7.866;2023-05-19T01:23:17;11.50;99.90
5023;DHT22;2530;47.990;7.866;2023-05-19T01:26:24;11.50;99.90
5023;DHT22;2530;47.990;7.866;2023-05-19T01:29:06;11.50;99.90
5023;DHT22;2530;47.990;7.866;2023-05-19T01:31:35;11.50;99.90
5023;DHT22;2530;47.990;7.866;2023-05-19T01:34:01;11.50;99.90
5023;DHT22;2530;47.990;7.866;2023-05-19T01:36:31;11.40;99.90
5023;DHT22;2530;47.990;7.866;2023-05-19T01:38:58;11.40;99.90
5023;DHT22;2530;47.990;7.866;2023-05-19T01:41:25;11.30;99.90
5023;DHT22;2530;47.990;7.866;2023-05-19T01:43:52;11.20;99.90
5023;DHT22;2530;47.990;7.866;2023-05-19T01:46:18;11.30;99.90
5023;DHT22;2530;47.990;7.866;2023-05-19T01:48:46;11.20;99.90
5023;DHT22;2530;47.990;7.866;2023-05-19T01:51:12;11.20;99.90
5023;DHT22;2530;47.990;7.866;2023-05-19T01:53:37;11.20;99.90
5023;DHT22;2530;47.990;7.866;2023-05-19T01:56:04;11.10;99.90
5023;DHT22;2530;47.990;7.866;2023-05-19T01:58:35;11.10;99.90
5023;DHT22;2530;47.990;7.866;2023-05-19T02:04:00;11.00;99.90
5023;DHT22;2530;47.990;7.866;2023-05-19T02:06:44;11.10;99.90
5023;DHT22;2530;47.990;7.866;2023-05-19T02:11:55;11.00;99.90
5023;DHT22;2530;47.990;7.866;2023-05-19T02:14:48;11.00;99.90
5023;DHT22;2530;47.990;7.866;2023-05-19T02:17:15;10.90;99.90
5023;DHT22;2530;47.990;7.866;2023-05-19T02:19:42;11.00;99.90
5023;DHT22;2530;47.990;7.866;2023-05-19T02:22:08;11.00;99.90
5023;DHT22;2530;47.990;7.866;2023-05-19T02:24:34;10.90;99.90
5023;DHT22;2530;47.990;7.866;2023-05-19T02:27:00;10.90;99.90
5023;DHT22;2530;47.990;7.866;2023-05-19T02:29:26;10.90;99.90
5023;DHT22;2530;47.990;7.866;2023-05-19T02:31:52;10.90;99.90
5023;DHT22;2530;47.990;7.866;2023-05-19T02:34:18;10.90;99.90
5023;DHT22;2530;47.990;7.866;2023-05-19T02:36:43;10.90;99.90
5023;DHT22;2530;47.990;7.866;2023-05-19T02:39:09;10.80;99.90
5023;DHT22;2530;47.990;7.866;2023-05-19T02:41:35;10.80;99.90
5023;DHT22;2530;47.990;7.866;2023-05-19T02:44:01;10.70;99.90
5023;DHT22;2530;47.990;7.866;2023-05-19T02:46:27;10.80;99.90
5023;DHT22;2530;47.990;7.866;2023-05-19T02:48:52;10.70;99.90
5023;DHT22;2530;47.990;7.866;2023-05-19T02:51:18;10.70;99.90
5023;DHT22;2530;47.990;7.866;2023-05-19T02:53:43;10.70;99.90
5023;DHT22;2530;47.990;7.866;2023-05-19T02:56:09;10.60;99.90
5023;DHT22;2530;47.990;7.866;2023-05-19T02:58:34;10.60;99.90
5023;DHT22;2530;47.990;7.866;2023-05-19T03:01:00;10.70;99.90
5023;DHT22;2530;47.990;7.866;2023-05-19T03:03:25;10.50;99.90
5023;DHT22;2530;47.990;7.866;2023-05-19T03:05:51;10.60;99.90
5023;DHT22;2530;47.990;7.866;2023-05-19T03:08:18;10.50;99.90
5023;DHT22;2530;47.990;7.866;2023-05-19T03:10:45;10.60;99.90
5023;DHT22;2530;47.990;7.866;2023-05-19T03:13:11;10.50;99.90
5023;DHT22;2530;47.990;7.866;2023-05-19T03:15:36;10.60;99.90
5023;DHT22;2530;47.990;7.866;2023-05-19T03:18:02;10.50;99.90
5023;DHT22;2530;47.990;7.866;2023-05-19T03:20:27;10.50;99.90
5023;DHT22;2530;47.990;7.866;2023-05-19T03:22:54;10.50;99.90
5023;DHT22;2530;47.990;7.866;2023-05-19T03:25:20;10.60;99.90
5023;DHT22;2530;47.990;7.866;2023-05-19T03:27:46;10.60;99.90
5023;DHT22;2530;47.990;7.866;2023-05-19T03:30:12;10.60;99.90
5023;DHT22;2530;47.990;7.866;2023-05-19T03:32:37;10.50;99.90
5023;DHT22;2530;47.990;7.866;2023-05-19T03:35:03;10.40;99.90
5023;DHT22;2530;47.990;7.866;2023-05-19T03:37:30;10.40;99.90
5023;DHT22;2530;47.990;7.866;2023-05-19T03:39:57;10.50;99.90
5023;DHT22;2530;47.990;7.866;2023-05-19T03:42:23;10.40;99.90
5023;DHT22;2530;47.990;7.866;2023-05-19T03:44:48;10.40;99.90
5023;DHT22;2530;47.990;7.866;2023-05-19T03:47:14;10.40;99.90
5023;DHT22;2530;47.990;7.866;2023-05-19T03:49:40;10.30;99.90
5023;DHT22;2530;47.990;7.866;2023-05-19T03:52:05;10.30;99.90
5023;DHT22;2530;47.990;7.866;2023-05-19T03:54:31;10.40;99.90
5023;DHT22;2530;47.990;7.866;2023-05-19T03:56:57;10.40;99.90
5023;DHT22;2530;47.990;7.866;2023-05-19T03:59:22;10.40;99.90
5023;DHT22;2530;47.990;7.866;2023-05-19T04:01:49;10.30;99.90
5023;DHT22;2530;47.990;7.866;2023-05-19T04:04:14;10.30;99.90
5023;DHT22;2530;47.990;7.866;2023-05-19T04:06:40;10.20;99.90
5023;DHT22;2530;47.990;7.866;2023-05-19T04:11:32;10.30;99.90
5023;DHT22;2530;47.990;7.866;2023-05-19T04:13:58;10.20;99.90
5023;DHT22;2530;47.990;7.866;2023-05-19T04:16:23;10.20;99.90
5023;DHT22;2530;47.990;7.866;2023-05-19T04:18:49;10.20;99.90
5023;DHT22;2530;47.990;7.866;2023-05-19T04:21:14;10.20;99.90
5023;DHT22;2530;47.990;7.866;2023-05-19T04:23:40;10.20;99.90
5023;DHT22;2530;47.990;7.866;2023-05-19T04:26:05;10.20;99.90
5023;DHT22;2530;47.990;7.866;2023-05-19T04:28:31;10.20;99.90
5023;DHT22;2530;47.990;7.866;2023-05-19T04:30:59;10.20;99.90
5023;DHT22;2530;47.990;7.866;2023-05-19T04:33:25;10.10;99.90
5023;DHT22;2530;47.990;7.866;2023-05-19T04:35:53;10.10;99.90
5023;DHT22;2530;47.990;7.866;2023-05-19T04:38:18;10.10;99.90
5023;DHT22;2530;47.990;7.866;2023-05-19T04:40:46;10.20;99.90
5023;DHT22;2530;47.990;7.866;2023-05-19T04:43:14;10.20;99.90
5023;DHT22;2530;47.990;7.866;2023-05-19T04:45:40;10.20;99.90
5023;DHT22;2530;47.990;7.866;2023-05-19T04:48:06;10.30;99.90
5023;DHT22;2530;47.990;7.866;2023-05-19T04:50:33;10.20;99.90
5023;DHT22;2530;47.990;7.866;2023-05-19T04:52:59;10.30;99.90
5023;DHT22;2530;47.990;7.866;2023-05-19T04:55:25;10.20;99.90
5023;DHT22;2530;47.990;7.866;2023-05-19T04:57:50;10.30;99.90
5023;DHT22;2530;47.990;7.866;2023-05-19T05:00:16;10.30;99.90
5023;DHT22;2530;47.990;7.866;2023-05-19T05:02:43;10.30;99.90
5023;DHT22;2530;47.990;7.866;2023-05-19T05:05:08;10.40;99.90
5023;DHT22;2530;47.990;7.866;2023-05-19T05:07:34;10.40;99.90
5023;DHT22;2530;47.990;7.866;2023-05-19T05:10:00;10.40;99.90
5023;DHT22;2530;47.990;7.866;2023-05-19T05:12:26;10.40;99.90
5023;DHT22;2530;47.990;7.866;2023-05-19T05:14:51;10.40;99.90
5023;DHT22;2530;47.990;7.866;2023-05-19T05:17:17;10.40;99.90
5023;DHT22;2530;47.990;7.866;2023-05-19T05:19:43;10.40;99.90
5023;DHT22;2530;47.990;7.866;2023-05-19T05:22:09;10.50;99.90
5023;DHT22;2530;47.990;7.866;2023-05-19T05:24:35;10.50;99.90
5023;DHT22;2530;47.990;7.866;2023-05-19T05:27:00;10.60;99.90
5023;DHT22;2530;47.990;7.866;2023-05-19T05:29:26;10.70;99.90
5023;DHT22;2530;47.990;7.866;2023-05-19T05:31:51;10.60;99.90
5023;DHT22;2530;47.990;7.866;2023-05-19T05:34:17;10.70;99.90
5023;DHT22;2530;47.990;7.866;2023-05-19T05:36:42;10.70;99.90
5023;DHT22;2530;47.990;7.866;2023-05-19T05:39:08;10.70;99.90
5023;DHT22;2530;47.990;7.866;2023-05-19T05:41:33;10.80;99.90
5023;DHT22;2530;47.990;7.866;2023-05-19T05:44:02;10.80;99.90
5023;DHT22;2530;47.990;7.866;2023-05-19T05:46:28;10.80;99.90
5023;DHT22;2530;47.990;7.866;2023-05-19T05:48:54;10.90;99.90
5023;DHT22;2530;47.990;7.866;2023-05-19T05:51:23;10.80;99.90
5023;DHT22;2530;47.990;7.866;2023-05-19T05:53:52;10.80;99.90
5023;DHT22;2530;47.990;7.866;2023-05-19T05:56:18;10.90;99.90
5023;DHT22;2530;47.990;7.866;2023-05-19T05:58:45;11.00;99.90
5023;DHT22;2530;47.990;7.866;2023-05-19T06:01:10;11.00;99.90
5023;DHT22;2530;47.990;7.866;2023-05-19T06:03:40;11.00;99.90
5023;DHT22;2530;47.990;7.866;2023-05-19T06:06:12;11.10;99.90
5023;DHT22;2530;47.990;7.866;2023-05-19T06:08:38;11.20;99.90
5023;DHT22;2530;47.990;7.866;2023-05-19T06:11:04;11.30;99.90
5023;DHT22;2530;47.990;7.866;2023-05-19T06:13:34;11.20;99.90
5023;DHT22;2530;47.990;7.866;2023-05-19T06:15:59;11.30;99.90
5023;DHT22;2530;47.990;7.866;2023-05-19T06:18:25;11.30;99.90
5023;DHT22;2530;47.990;7.866;2023-05-19T06:20:50;11.30;99.90
5023;DHT22;2530;47.990;7.866;2023-05-19T06:23:16;11.30;99.90
5023;DHT22;2530;47.990;7.866;2023-05-19T06:25:41;11.40;99.90
5023;DHT22;2530;47.990;7.866;2023-05-19T06:28:07;11.40;99.90
5023;DHT22;2530;47.990;7.866;2023-05-19T06:30:32;11.50;99.90
5023;DHT22;2530;47.990;7.866;2023-05-19T06:32:58;11.70;99.90
5023;DHT22;2530;47.990;7.866;2023-05-19T06:35:24;11.80;99.90
5023;DHT22;2530;47.990;7.866;2023-05-19T06:37:49;11.60;99.90
5023;DHT22;2530;47.990;7.866;2023-05-19T06:40:15;11.50;99.90
5023;DHT22;2530;47.990;7.866;2023-05-19T06:42:41;11.60;99.90
5023;DHT22;2530;47.990;7.866;2023-05-19T06:45:07;11.60;99.90
5023;DHT22;2530;47.990;7.866;2023-05-19T06:47:32;11.70;99.90
5023;DHT22;2530;47.990;7.866;2023-05-19T06:49:58;11.70;99.90
5023;DHT22;2530;47.990;7.866;2023-05-19T06:52:23;11.70;99.90
5023;DHT22;2530;47.990;7.866;2023-05-19T06:54:49;11.60;99.90
5023;DHT22;2530;47.990;7.866;2023-05-19T06:57:15;11.50;99.90
5023;DHT22;2530;47.990;7.866;2023-05-19T06:59:40;11.60;99.90
5023;DHT22;2530;47.990;7.866;2023-05-19T07:02:07;11.80;99.90
5023;DHT22;2530;47.990;7.866;2023-05-19T07:04:33;11.90;99.90
5023;DHT22;2530;47.990;7.866;2023-05-19T07:06:59;11.90;99.90
5023;DHT22;2530;47.990;7.866;2023-05-19T07:09:25;11.90;99.90
5023;DHT22;2530;47.990;7.866;2023-05-19T07:11:50;11.80;99.90
5023;DHT22;2530;47.990;7.866;2023-05-19T07:14:16;12.00;99.90
5023;DHT22;2530;47.990;7.866;2023-05-19T07:16:41;12.20;99.90
5023;DHT22;2530;47.990;7.866;2023-05-19T07:19:07;12.30;99.90
5023;DHT22;2530;47.990;7.866;2023-05-19T07:21:33;12.30;99.90
5023;DHT22;2530;47.990;7.866;2023-05-19T07:23:58;12.30;99.90
5023;DHT22;2530;47.990;7.866;2023-05-19T07:26:24;12.40;99.90
5023;DHT22;2530;47.990;7.866;2023-05-19T07:28:50;12.50;99.90
5023;DHT22;2530;47.990;7.866;2023-05-19T07:31:16;12.60;99.90
5023;DHT22;2530;47.990;7.866;2023-05-19T07:33:41;12.80;99.90
5023;DHT22;2530;47.990;7.866;2023-05-19T07:36:07;12.80;99.90
5023;DHT22;2530;47.990;7.866;2023-05-19T07:38:33;12.80;99.90
5023;DHT22;2530;47.990;7.866;2023-05-19T07:41:00;12.90;99.90
5023;DHT22;2530;47.990;7.866;2023-05-19T07:43:25;12.90;99.90
5023;DHT22;2530;47.990;7.866;2023-05-19T07:45:51;13.00;99.90
5023;DHT22;2530;47.990;7.866;2023-05-19T07:48:18;13.20;99.90
5023;DHT22;2530;47.990;7.866;2023-05-19T07:50:46;13.10;99.90
5023;DHT22;2530;47.990;7.866;2023-05-19T07:53:12;13.10;99.60
5023;DHT22;2530;47.990;7.866;2023-05-19T07:55:37;13.40;89.60
5023;DHT22;2530;47.990;7.866;2023-05-19T07:58:03;13.60;99.80
5023;DHT22;2530;47.990;7.866;2023-05-19T08:00:29;13.70;99.20
5023;DHT22;2530;47.990;7.866;2023-05-19T08:02:54;13.80;58.10
5023;DHT22;2530;47.990;7.866;2023-05-19T08:05:21;13.80;99.90
5023;DHT22;2530;47.990;7.866;2023-05-19T08:07:46;13.80;92.20
5023;DHT22;2530;47.990;7.866;2023-05-19T08:10:12;13.90;74.30
5023;DHT22;2530;47.990;7.866;2023-05-19T08:12:37;14.10;56.40
5023;DHT22;2530;47.990;7.866;2023-05-19T08:15:03;14.00;56.90
5023;DHT22;2530;47.990;7.866;2023-05-19T08:17:29;14.20;34.60
5023;DHT22;2530;47.990;7.866;2023-05-19T08:19:55;14.30;46.00
5023;DHT22;2530;47.990;7.866;2023-05-19T08:22:20;14.40;53.80
5023;DHT22;2530;47.990;7.866;2023-05-19T08:24:46;14.40;17.60
5023;DHT22;2530;47.990;7.866;2023-05-19T08:27:14;14.50;45.50
5023;DHT22;2530;47.990;7.866;2023-05-19T08:29:39;14.70;43.90
5023;DHT22;2530;47.990;7.866;2023-05-19T08:32:05;15.10;21.60
5023;DHT22;2530;47.990;7.866;2023-05-19T08:34:31;14.80;13.50
5023;DHT22;2530;47.990;7.866;2023-05-19T08:36:57;14.90;2.30
5023;DHT22;2530;47.990;7.866;2023-05-19T08:39:24;14.90;3.00
5023;DHT22;2530;47.990;7.866;2023-05-19T08:41:54;15.00;6.90
5023;DHT22;2530;47.990;7.866;2023-05-19T08:44:20;15.10;10.70
5023;DHT22;2530;47.990;7.866;2023-05-19T08:46:46;15.10;18.30
5023;DHT22;2530;47.990;7.866;2023-05-19T08:49:13;14.90;5.10
5023;DHT22;2530;47.990;7.866;2023-05-19T08:54:42;15.00;8.40
5023;DHT22;2530;47.990;7.866;2023-05-19T08:57:09;15.40;1.00
5023;DHT22;2530;47.990;7.866;2023-05-19T08:59:35;15.60;1.00
5023;DHT22;2530;47.990;7.866;2023-05-19T09:02:02;15.80;1.00
5023;DHT22;2530;47.990;7.866;2023-05-19T09:04:29;15.70;1.00
5023;DHT22;2530;47.990;7.866;2023-05-19T09:06:55;15.70;1.00
5023;DHT22;2530;47.990;7.866;2023-05-19T09:09:21;15.90;1.00
5023;DHT22;2530;47.990;7.866;2023-05-19T09:11:46;15.50;1.00
5023;DHT22;2530;47.990;7.866;2023-05-19T09:14:12;15.50;1.00
5023;DHT22;2530;47.990;7.866;2023-05-19T09:16:38;15.60;1.00
5023;DHT22;2530;47.990;7.866;2023-05-19T09:19:03;15.80;1.00
5023;DHT22;2530;47.990;7.866;2023-05-19T09:21:29;16.30;1.00
5023;DHT22;2530;47.990;7.866;2023-05-19T09:23:56;16.40;1.00
5023;DHT22;2530;47.990;7.866;2023-05-19T09:26:22;16.20;1.00
5023;DHT22;2530;47.990;7.866;2023-05-19T09:28:48;16.20;1.00
5023;DHT22;2530;47.990;7.866;2023-05-19T09:31:14;16.20;1.00
5023;DHT22;2530;47.990;7.866;2023-05-19T09:33:40;16.40;1.00
5023;DHT22;2530;47.990;7.866;2023-05-19T09:36:07;16.50;1.00
5023;DHT22;2530;47.990;7.866;2023-05-19T09:38:34;16.60;1.00
5023;DHT22;2530;47.990;7.866;2023-05-19T09:41:00;16.60;1.00
5023;DHT22;2530;47.990;7.866;2023-05-19T09:43:30;16.70;1.00
5023;DHT22;2530;47.990;7.866;2023-05-19T09:46:03;16.70;1.00
5023;DHT22;2530;47.990;7.866;2023-05-19T09:48:29;17.40;1.00
5023;DHT22;2530;47.990;7.866;2023-05-19T09:50:54;17.80;1.00
5023;DHT22;2530;47.990;7.866;2023-05-19T09:53:21;18.00;1.00
5023;DHT22;2530;47.990;7.866;2023-05-19T09:55:48;18.00;1.00
5023;DHT22;2530;47.990;7.866;2023-05-19T09:58:16;18.10;1.00
5023;DHT22;2530;47.990;7.866;2023-05-19T10:00:43;18.30;1.00
5023;DHT22;2530;47.990;7.866;2023-05-19T10:03:09;18.10;1.00
5023;DHT22;2530;47.990;7.866;2023-05-19T10:05:36;18.10;1.00
5023;DHT22;2530;47.990;7.866;2023-05-19T10:08:02;18.30;1.00
5023;DHT22;2530;47.990;7.866;2023-05-19T10:10:32;18.10;1.00
5023;DHT22;2530;47.990;7.866;2023-05-19T10:12:58;18.10;1.00
5023;DHT22;2530;47.990;7.866;2023-05-19T10:15:25;18.10;1.00
5023;DHT22;2530;47.990;7.866;2023-05-19T10:17:51;18.10;1.00
5023;DHT22;2530;47.990;7.866;2023-05-19T10:20:17;18.10;1.00
5023;DHT22;2530;47.990;7.866;2023-05-19T10:22:44;17.80;1.00
5023;DHT22;2530;47.990;7.866;2023-05-19T10:25:11;17.50;1.00
5023;DHT22;2530;47.990;7.866;2023-05-19T10:27:54;17.50;1.00
5023;DHT22;2530;47.990;7.866;2023-05-19T10:30:37;17.40;1.00
5023;DHT22;2530;47.990;7.866;2023-05-19T10:33:06;17.40;1.00
5023;DHT22;2530;47.990;7.866;2023-05-19T10:38:31;17.20;1.00
5023;DHT22;2530;47.990;7.866;2023-05-19T10:41:19;17.30;1.00
5023;DHT22;2530;47.990;7.866;2023-05-19T10:43:55;17.00;1.00
5023;DHT22;2530;47.990;7.866;2023-05-19T10:46:28;17.00;1.00
5023;DHT22;2530;47.990;7.866;2023-05-19T10:48:54;17.00;1.00
5023;DHT22;2530;47.990;7.866;2023-05-19T10:51:20;17.30;1.00
5023;DHT22;2530;47.990;7.866;2023-05-19T10:53:45;17.30;1.00
5023;DHT22;2530;47.990;7.866;2023-05-19T10:56:32;16.90;1.00
5023;DHT22;2530;47.990;7.866;2023-05-19T10:59:01;17.20;1.00
5023;DHT22;2530;47.990;7.866;2023-05-19T11:01:34;17.20;1.00
5023;DHT22;2530;47.990;7.866;2023-05-19T11:04:05;16.90;1.00
5023;DHT22;2530;47.990;7.866;2023-05-19T11:06:32;16.50;1.00
5023;DHT22;2530;47.990;7.866;2023-05-19T11:09:11;16.70;1.00
5023;DHT22;2530;47.990;7.866;2023-05-19T11:11:53;16.90;1.00
5023;DHT22;2530;47.990;7.866;2023-05-19T11:14:24;16.90;1.00
5023;DHT22;2530;47.990;7.866;2023-05-19T11:16:55;16.80;1.00
5023;DHT22;2530;47.990;7.866;2023-05-19T11:19:31;16.90;1.00
5023;DHT22;2530;47.990;7.866;2023-05-19T11:22:09;17.30;1.00
5023;DHT22;2530;47.990;7.866;2023-05-19T11:24:35;17.50;1.00
5023;DHT22;2530;47.990;7.866;2023-05-19T11:29:50;18.20;1.00
5023;DHT22;2530;47.990;7.866;2023-05-19T11:32:17;18.10;1.00
5023;DHT22;2530;47.990;7.866;2023-05-19T11:34:44;18.00;1.00
5023;DHT22;2530;47.990;7.866;2023-05-19T11:37:10;17.70;1.00
5023;DHT22;2530;47.990;7.866;2023-05-19T11:39:36;17.20;1.00
5023;DHT22;2530;47.990;7.866;2023-05-19T11:42:03;16.90;1.00
5023;DHT22;2530;47.990;7.866;2023-05-19T11:44:29;17.10;1.00
5023;DHT22;2530;47.990;7.866;2023-05-19T11:46:56;17.40;1.00
5023;DHT22;2530;47.990;7.866;2023-05-19T11:49:22;17.50;1.00
5023;DHT22;2530;47.990;7.866;2023-05-19T11:51:48;17.70;1.00
5023;DHT22;2530;47.990;7.866;2023-05-19T11:54:13;17.40;1.00
5023;DHT22;2530;47.990;7.866;2023-05-19T11:56:40;17.10;1.00
5023;DHT22;2530;47.990;7.866;2023-05-19T11:59:06;17.30;1.00
5023;DHT22;2530;47.990;7.866;2023-05-19T12:01:33;17.40;1.00
5023;DHT22;2530;47.990;7.866;2023-05-19T12:04:00;17.50;1.00
5023;DHT22;2530;47.990;7.866;2023-05-19T12:06:26;17.50;1.00
5023;DHT22;2530;47.990;7.866;2023-05-19T12:08:55;17.30;1.00
5023;DHT22;2530;47.990;7.866;2023-05-19T12:11:22;17.50;1.00
5023;DHT22;2530;47.990;7.866;2023-05-19T12:13:49;17.60;1.00
5023;DHT22;2530;47.990;7.866;2023-05-19T12:16:21;17.40;1.00
5023;DHT22;2530;47.990;7.866;2023-05-19T12:18:47;17.10;1.00
5023;DHT22;2530;47.990;7.866;2023-05-19T12:21:13;17.20;1.00
5023;DHT22;2530;47.990;7.866;2023-05-19T12:23:38;17.10;1.00
5023;DHT22;2530;47.990;7.866;2023-05-19T12:26:05;17.00;1.00
5023;DHT22;2530;47.990;7.866;2023-05-19T12:28:31;17.30;1.00
5023;DHT22;2530;47.990;7.866;2023-05-19T12:30:57;17.20;1.00
5023;DHT22;2530;47.990;7.866;2023-05-19T12:33:23;17.50;1.00
5023;DHT22;2530;47.990;7.866;2023-05-19T12:35:49;17.60;1.00
5023;DHT22;2530;47.990;7.866;2023-05-19T12:38:15;17.50;1.00
5023;DHT22;2530;47.990;7.866;2023-05-19T12:40:42;17.50;1.00
5023;DHT22;2530;47.990;7.866;2023-05-19T12:43:18;17.80;1.00
5023;DHT22;2530;47.990;7.866;2023-05-19T12:45:43;18.00;1.00
5023;DHT22;2530;47.990;7.866;2023-05-19T12:48:13;17.50;1.00
5023;DHT22;2530;47.990;7.866;2023-05-19T12:50:42;17.50;1.00
5023;DHT22;2530;47.990;7.866;2023-05-19T12:53:11;17.80;1.00
5023;DHT22;2530;47.990;7.866;2023-05-19T12:55:41;17.80;1.00
5023;DHT22;2530;47.990;7.866;2023-05-19T12:58:07;17.50;1.00
5023;DHT22;2530;47.990;7.866;2023-05-19T13:00:33;17.80;1.00
5023;DHT22;2530;47.990;7.866;2023-05-19T13:03:06;17.80;1.00
5023;DHT22;2530;47.990;7.866;2023-05-19T13:05:40;18.00;1.00
5023;DHT22;2530;47.990;7.866;2023-05-19T13:10:36;18.30;1.00
5023;DHT22;2530;47.990;7.866;2023-05-19T13:13:02;18.20;1.00
5023;DHT22;2530;47.990;7.866;2023-05-19T13:15:30;18.60;1.00
5023;DHT22;2530;47.990;7.866;2023-05-19T13:17:59;18.70;1.00
5023;DHT22;2530;47.990;7.866;2023-05-19T13:20:25;18.80;1.00
5023;DHT22;2530;47.990;7.866;2023-05-19T13:22:51;18.60;1.00
5023;DHT22;2530;47.990;7.866;2023-05-19T13:25:17;18.40;1.00
5023;DHT22;2530;47.990;7.866;2023-05-19T13:27:46;18.40;1.00
5023;DHT22;2530;47.990;7.866;2023-05-19T13:30:12;17.90;1.00
5023;DHT22;2530;47.990;7.866;2023-05-19T13:32:39;17.90;1.00
5023;DHT22;2530;47.990;7.866;2023-05-19T13:35:05;17.50;1.00
5023;DHT22;2530;47.990;7.866;2023-05-19T13:37:31;17.60;1.00
5023;DHT22;2530;47.990;7.866;2023-05-19T13:39:56;17.50;1.00
5023;DHT22;2530;47.990;7.866;2023-05-19T13:42:22;17.50;1.00
5023;DHT22;2530;47.990;7.866;2023-05-19T13:44:48;17.30;1.00
5023;DHT22;2530;47.990;7.866;2023-05-19T13:47:13;17.40;1.00
5023;DHT22;2530;47.990;7.866;2023-05-19T13:49:40;17.30;1.00
5023;DHT22;2530;47.990;7.866;2023-05-19T13:52:06;17.20;1.00
5023;DHT22;2530;47.990;7.866;2023-05-19T13:54:32;17.20;1.00
5023;DHT22;2530;47.990;7.866;2023-05-19T13:56:58;17.40;1.00
5023;DHT22;2530;47.990;7.866;2023-05-19T13:59:27;17.50;1.00
5023;DHT22;2530;47.990;7.866;2023-05-19T14:01:52;17.50;1.00
5023;DHT22;2530;47.990;7.866;2023-05-19T14:04:18;17.20;1.00
5023;DHT22;2530;47.990;7.866;2023-05-19T14:06:44;17.20;1.00
5023;DHT22;2530;47.990;7.866;2023-05-19T14:09:10;17.30;1.00
5023;DHT22;2530;47.990;7.866;2023-05-19T14:11:36;17.20;1.00
5023;DHT22;2530;47.990;7.866;2023-05-19T14:14:02;16.90;1.00
5023;DHT22;2530;47.990;7.866;2023-05-19T14:16:28;16.90;1.00
5023;DHT22;2530;47.990;7.866;2023-05-19T14:18:55;16.80;1.00
5023;DHT22;2530;47.990;7.866;2023-05-19T14:21:21;16.90;1.00
5023;DHT22;2530;47.990;7.866;2023-05-19T14:23:46;17.00;1.00
5023;DHT22;2530;47.990;7.866;2023-05-19T14:26:12;16.80;1.00
5023;DHT22;2530;47.990;7.866;2023-05-19T14:28:38;16.90;1.00
5023;DHT22;2530;47.990;7.866;2023-05-19T14:31:03;17.00;1.00
5023;DHT22;2530;47.990;7.866;2023-05-19T14:33:30;17.00;1.00
5023;DHT22;2530;47.990;7.866;2023-05-19T14:35:55;17.20;1.00
5023;DHT22;2530;47.990;7.866;2023-05-19T14:38:24;17.30;1.00
5023;DHT22;2530;47.990;7.866;2023-05-19T14:40:50;17.30;1.00
5023;DHT22;2530;47.990;7.866;2023-05-19T14:43:15;17.40;1.00
5023;DHT22;2530;47.990;7.866;2023-05-19T14:45:41;17.30;1.00
5023;DHT22;2530;47.990;7.866;2023-05-19T14:48:07;17.40;1.00
5023;DHT22;2530;47.990;7.866;2023-05-19T14:50:34;17.30;1.00
5023;DHT22;2530;47.990;7.866;2023-05-19T14:52:59;17.10;1.00
5023;DHT22;2530;47.990;7.866;2023-05-19T14:55:25;17.20;1.00
5023;DHT22;2530;47.990;7.866;2023-05-19T14:57:50;17.20;1.00
5023;DHT22;2530;47.990;7.866;2023-05-19T15:00:16;17.20;1.00
5023;DHT22;2530;47.990;7.866;2023-05-19T15:02:42;17.20;1.00
5023;DHT22;2530;47.990;7.866;2023-05-19T15:05:08;17.20;1.00
5023;DHT22;2530;47.990;7.866;2023-05-19T15:07:34;17.10;1.00
5023;DHT22;2530;47.990;7.866;2023-05-19T15:09:59;17.20;1.00
5023;DHT22;2530;47.990;7.866;2023-05-19T15:12:26;17.20;1.00
5023;DHT22;2530;47.990;7.866;2023-05-19T15:14:51;17.20;1.00
5023;DHT22;2530;47.990;7.866;2023-05-19T15:17:17;17.20;1.00
5023;DHT22;2530;47.990;7.866;2023-05-19T15:19:43;17.10;1.00
5023;DHT22;2530;47.990;7.866;2023-05-19T15:22:08;17.00;1.00
5023;DHT22;2530;47.990;7.866;2023-05-19T15:24:34;17.10;1.00
5023;DHT22;2530;47.990;7.866;2023-05-19T15:27:00;17.10;1.00
5023;DHT22;2530;47.990;7.866;2023-05-19T15:29:26;17.00;1.00
5023;DHT22;2530;47.990;7.866;2023-05-19T15:31:51;17.10;1.00
5023;DHT22;2530;47.990;7.866;2023-05-19T15:34:18;17.10;1.00
5023;DHT22;2530;47.990;7.866;2023-05-19T15:36:43;17.00;1.00
5023;DHT22;2530;47.990;7.866;2023-05-19T15:39:09;17.10;1.00
5023;DHT22;2530;47.990;7.866;2023-05-19T15:41:34;16.90;1.00
5023;DHT22;2530;47.990;7.866;2023-05-19T15:44:00;16.90;1.00
5023;DHT22;2530;47.990;7.866;2023-05-19T15:46:27;16.80;1.00
5023;DHT22;2530;47.990;7.866;2023-05-19T15:48:53;16.80;1.00
5023;DHT22;2530;47.990;7.866;2023-05-19T15:51:18;16.80;1.00
5023;DHT22;2530;47.990;7.866;2023-05-19T15:53:44;16.80;1.00
5023;DHT22;2530;47.990;7.866;2023-05-19T15:56:09;16.80;1.00
5023;DHT22;2530;47.990;7.866;2023-05-19T15:58:35;16.70;1.00
5023;DHT22;2530;47.990;7.866;2023-05-19T16:01:01;16.70;1.00
5023;DHT22;2530;47.990;7.866;2023-05-19T16:03:27;16.50;1.00
5023;DHT22;2530;47.990;7.866;2023-05-19T16:05:54;16.50;1.00
5023;DHT22;2530;47.990;7.866;2023-05-19T16:08:20;16.50;1.00
5023;DHT22;2530;47.990;7.866;2023-05-19T16:10:46;16.50;1.00
5023;DHT22;2530;47.990;7.866;2023-05-19T16:13:12;16.50;1.00
5023;DHT22;2530;47.990;7.866;2023-05-19T16:15:37;16.30;1.00
5023;DHT22;2530;47.990;7.866;2023-05-19T16:18:03;16.40;1.00
5023;DHT22;2530;47.990;7.866;2023-05-19T16:20:28;16.20;1.00
5023;DHT22;2530;47.990;7.866;2023-05-19T16:22:54;16.10;1.00
5023;DHT22;2530;47.990;7.866;2023-05-19T16:25:20;16.10;1.00
5023;DHT22;2530;47.990;7.866;2023-05-19T16:27:46;16.00;1.00
5023;DHT22;2530;47.990;7.866;2023-05-19T16:30:11;16.00;1.00